sensor_id;sensor_type;location;lat;lon;timestamp;pressure;altitude;pressure_sealevel;temperature;humidity
22261;BME280;11299;43.202;27.920;2023-04-01T00:00:27;100370.19;;;7.48;100.00
22261;BME280;11299;43.202;27.920;2023-04-01T00:02:53;100441.31;;;7.91;100.00
22261;BME280;11299;43.202;27.920;2023-04-01T00:05:18;100355.16;;;7.39;100.00
22261;BME280;11299;43.202;27.920;2023-04-01T00:07:43;100363.16;;;7.40;100.00
22261;BME280;11299;43.202;27.920;2023-04-01T00:10:11;100454.00;;;7.92;100.00
22261;BME280;11299;43.202;27.920;2023-04-01T00:12:37;100459.72;;;8.02;100.00
22261;BME280;11299;43.202;27.920;2023-04-01T00:15:04;100367.84;;;7.40;100.00
22261;BME280;11299;43.202;27.920;2023-04-01T00:17:30;100354.81;;;7.24;100.00
22261;BME280;11299;43.202;27.920;2023-04-01T00:19:56;100458.81;;;7.73;100.00
22261;BME280;11299;43.202;27.920;2023-04-01T00:22:22;100476.63;;;7.94;100.00
22261;BME280;11299;43.202;27.920;2023-04-01T00:24:48;100358.75;;;7.28;100.00
22261;BME280;11299;43.202;27.920;2023-04-01T00:27:14;100461.06;;;7.88;100.00
22261;BME280;11299;43.202;27.920;2023-04-01T00:29:42;100450.44;;;7.80;100.00
22261;BME280;11299;43.202;27.920;2023-04-01T00:32:08;100493.38;;;7.92;100.00
22261;BME280;11299;43.202;27.920;2023-04-01T00:34:34;100331.28;;;7.16;100.00
22261;BME280;11299;43.202;27.920;2023-04-01T00:36:59;100435.34;;;7.71;100.00
22261;BME280;11299;43.202;27.920;2023-04-01T00:39:28;100409.28;;;7.61;100.00
22261;BME280;11299;43.202;27.920;2023-04-01T00:41:54;100425.81;;;7.61;100.00
22261;BME280;11299;43.202;27.920;2023-04-01T00:44:30;100425.56;;;7.51;100.00
22261;BME280;11299;43.202;27.920;2023-04-01T00:46:57;100314.94;;;6.87;100.00
22261;BME280;11299;43.202;27.920;2023-04-01T00:49:26;100440.16;;;7.63;100.00
22261;BME280;11299;43.202;27.920;2023-04-01T00:51:54;100360.47;;;7.06;100.00
22261;BME280;11299;43.202;27.920;2023-04-01T00:54:23;100430.47;;;7.49;100.00
22261;BME280;11299;43.202;27.920;2023-04-01T00:56:53;100420.06;;;7.51;100.00
22261;BME280;11299;43.202;27.920;2023-04-01T00:59:37;100447.59;;;7.51;100.00
22261;BME280;11299;43.202;27.920;2023-04-01T01:02:07;100448.19;;;7.53;100.00
22261;BME280;11299;43.202;27.920;2023-04-01T01:04:34;100420.06;;;7.51;100.00
22261;BME280;11299;43.202;27.920;2023-04-01T01:07:26;100448.97;;;7.89;100.00
22261;BME280;11299;43.202;27.920;2023-04-01T01:13:17;100452.94;;;7.81;100.00
22261;BME280;11299;43.202;27.920;2023-04-01T01:15:53;100439.53;;;7.85;100.00
22261;BME280;11299;43.202;27.920;2023-04-01T01:18:42;100450.03;;;7.88;100.00
22261;BME280;11299;43.202;27.920;2023-04-01T01:21:45;100424.59;;;7.69;100.00
22261;BME280;11299;43.202;27.920;2023-04-01T01:24:26;100307.75;;;6.97;100.00
22261;BME280;11299;43.202;27.920;2023-04-01T01:37:46;100414.47;;;7.98;100.00
22261;BME280;11299;43.202;27.920;2023-04-01T01:40:15;100383.94;;;7.99;100.00
22261;BME280;11299;43.202;27.920;2023-04-01T01:42:48;100095.94;;;6.13;100.00
22261;BME280;11299;43.202;27.920;2023-04-01T01:45:19;100093.31;;;5.95;100.00
22261;BME280;11299;43.202;27.920;2023-04-01T01:47:45;100384.72;;;7.83;100.00
22261;BME280;11299;43.202;27.920;2023-04-01T01:50:12;100124.81;;;6.27;100.00
22261;BME280;11299;43.202;27.920;2023-04-01T01:52:39;100338.72;;;7.55;100.00
22261;BME280;11299;43.202;27.920;2023-04-01T01:55:45;100443.63;;;8.10;100.00
22261;BME280;11299;43.202;27.920;2023-04-01T01:58:13;100438.47;;;8.14;100.00
22261;BME280;11299;43.202;27.920;2023-04-01T02:00:42;100342.94;;;7.46;100.00
22261;BME280;11299;43.202;27.920;2023-04-01T02:03:11;100422.94;;;8.08;100.00
22261;BME280;11299;43.202;27.920;2023-04-01T02:05:38;100399.44;;;7.89;100.00
22261;BME280;11299;43.202;27.920;2023-04-01T02:08:12;100404.34;;;7.87;100.00
22261;BME280;11299;43.202;27.920;2023-04-01T02:10:41;100404.16;;;8.05;100.00
22261;BME280;11299;43.202;27.920;2023-04-01T02:16:15;100390.75;;;7.97;100.00
22261;BME280;11299;43.202;27.920;2023-04-01T02:18:48;100370.97;;;7.83;100.00
22261;BME280;11299;43.202;27.920;2023-04-01T02:21:17;100357.91;;;7.79;100.00
22261;BME280;11299;43.202;27.920;2023-04-01T02:23:44;100315.66;;;7.56;100.00
22261;BME280;11299;43.202;27.920;2023-04-01T02:26:11;100232.88;;;7.18;100.00
22261;BME280;11299;43.202;27.920;2023-04-01T02:28:38;100390.59;;;8.15;100.00
22261;BME280;11299;43.202;27.920;2023-04-01T02:31:06;100360.09;;;8.05;100.00
22261;BME280;11299;43.202;27.920;2023-04-01T02:33:33;100356.28;;;8.06;100.00
22261;BME280;11299;43.202;27.920;2023-04-01T02:35:59;100359.09;;;8.11;100.00
22261;BME280;11299;43.202;27.920;2023-04-01T02:38:25;100388.50;;;8.33;100.00
22261;BME280;11299;43.202;27.920;2023-04-01T02:40:57;100372.50;;;8.19;100.00
22261;BME280;11299;43.202;27.920;2023-04-01T02:43:23;100396.00;;;8.10;100.00
22261;BME280;11299;43.202;27.920;2023-04-01T02:45:48;100351.53;;;7.90;100.00
22261;BME280;11299;43.202;27.920;2023-04-01T02:48:14;100350.63;;;8.01;100.00
22261;BME280;11299;43.202;27.920;2023-04-01T02:50:39;100401.59;;;7.87;100.00
22261;BME280;11299;43.202;27.920;2023-04-01T02:53:05;100251.81;;;7.43;100.00
22261;BME280;11299;43.202;27.920;2023-04-01T02:55:32;100336.00;;;8.12;100.00
22261;BME280;11299;43.202;27.920;2023-04-01T02:57:58;100355.69;;;8.32;100.00
22261;BME280;11299;43.202;27.920;2023-04-01T03:00:24;100264.28;;;7.90;100.00
22261;BME280;11299;43.202;27.920;2023-04-01T03:02:50;100345.53;;;8.49;100.00
22261;BME280;11299;43.202;27.920;2023-04-01T03:05:15;100335.81;;;8.46;100.00
22261;BME280;11299;43.202;27.920;2023-04-01T03:07:41;100131.22;;;7.23;100.00
22261;BME280;11299;43.202;27.920;2023-04-01T03:10:07;100309.59;;;8.27;100.00
22261;BME280;11299;43.202;27.920;2023-04-01T03:12:32;100302.53;;;8.20;100.00
22261;BME280;11299;43.202;27.920;2023-04-01T03:14:58;100262.25;;;7.86;100.00
22261;BME280;11299;43.202;27.920;2023-04-01T03:17:23;100305.50;;;8.30;100.00
22261;BME280;11299;43.202;27.920;2023-04-01T03:19:49;100241.34;;;7.85;100.00
22261;BME280;11299;43.202;27.920;2023-04-01T03:22:14;100282.38;;;8.31;100.00
22261;BME280;11299;43.202;27.920;2023-04-01T03:24:40;100299.09;;;8.41;100.00
22261;BME280;11299;43.202;27.920;2023-04-01T03:27:05;100276.31;;;8.45;100.00
22261;BME280;11299;43.202;27.920;2023-04-01T03:29:31;100264.84;;;8.37;100.00
22261;BME280;11299;43.202;27.920;2023-04-01T03:31:56;100319.47;;;8.57;100.00
22261;BME280;11299;43.202;27.920;2023-04-01T03:34:24;100229.25;;;8.19;100.00
22261;BME280;11299;43.202;27.920;2023-04-01T03:36:51;100156.31;;;7.72;100.00
22261;BME280;11299;43.202;27.920;2023-04-01T03:39:16;100298.50;;;8.72;100.00
22261;BME280;11299;43.202;27.920;2023-04-01T03:41:44;100304.06;;;8.94;100.00
22261;BME280;11299;43.202;27.920;2023-04-01T03:44:10;100315.31;;;9.09;100.00
22261;BME280;11299;43.202;27.920;2023-04-01T03:46:35;100318.59;;;9.27;100.00
22261;BME280;11299;43.202;27.920;2023-04-01T03:49:01;100330.91;;;9.36;100.00
22261;BME280;11299;43.202;27.920;2023-04-01T03:51:27;100311.00;;;9.34;100.00
22261;BME280;11299;43.202;27.920;2023-04-01T03:53:52;100258.97;;;9.05;100.00
22261;BME280;11299;43.202;27.920;2023-04-01T03:56:18;100292.16;;;9.31;100.00
22261;BME280;11299;43.202;27.920;2023-04-01T03:58:43;100341.59;;;9.55;100.00
22261;BME280;11299;43.202;27.920;2023-04-01T04:01:17;100353.88;;;9.64;100.00
22261;BME280;11299;43.202;27.920;2023-04-01T04:03:43;100335.78;;;9.73;100.00
22261;BME280;11299;43.202;27.920;2023-04-01T04:06:13;100338.78;;;9.71;100.00
22261;BME280;11299;43.202;27.920;2023-04-01T04:08:39;100302.19;;;9.37;100.00
22261;BME280;11299;43.202;27.920;2023-04-01T04:11:04;100295.31;;;9.62;100.00
22261;BME280;11299;43.202;27.920;2023-04-01T04:13:30;100318.16;;;9.79;100.00
22261;BME280;11299;43.202;27.920;2023-04-01T04:15:55;100292.09;;;9.70;100.00
22261;BME280;11299;43.202;27.920;2023-04-01T04:18:21;100228.84;;;9.41;100.00
22261;BME280;11299;43.202;27.920;2023-04-01T04:20:46;100359.88;;;10.04;100.00
22261;BME280;11299;43.202;27.920;2023-04-01T04:23:15;100337.78;;;10.04;100.00
22261;BME280;11299;43.202;27.920;2023-04-01T04:25:41;100374.22;;;10.22;100.00
22261;BME280;11299;43.202;27.920;2023-04-01T04:28:06;100303.22;;;10.23;100.00
22261;BME280;11299;43.202;27.920;2023-04-01T04:30:32;100323.25;;;10.35;100.00
22261;BME280;11299;43.202;27.920;2023-04-01T04:32:57;100300.69;;;10.48;100.00
22261;BME280;11299;43.202;27.920;2023-04-01T04:35:22;100363.25;;;10.59;100.00
22261;BME280;11299;43.202;27.920;2023-04-01T04:37:48;100309.84;;;10.90;100.00
22261;BME280;11299;43.202;27.920;2023-04-01T04:40:13;100314.25;;;10.86;100.00
22261;BME280;11299;43.202;27.920;2023-04-01T04:42:39;100279.97;;;10.87;100.00
22261;BME280;11299;43.202;27.920;2023-04-01T04:45:06;100266.34;;;10.81;100.00
22261;BME280;11299;43.202;27.920;2023-04-01T04:47:31;100323.88;;;11.15;100.00
22261;BME280;11299;43.202;27.920;2023-04-01T04:49:57;100289.03;;;11.19;100.00
22261;BME280;11299;43.202;27.920;2023-04-01T04:52:22;100370.16;;;11.30;100.00
22261;BME280;11299;43.202;27.920;2023-04-01T04:54:47;100174.69;;;10.62;100.00
22261;BME280;11299;43.202;27.920;2023-04-01T04:57:14;100173.91;;;10.67;100.00
22261;BME280;11299;43.202;27.920;2023-04-01T04:59:39;100181.66;;;10.70;100.00
22261;BME280;11299;43.202;27.920;2023-04-01T05:02:05;100308.50;;;11.39;100.00
22261;BME280;11299;43.202;27.920;2023-04-01T05:04:34;100300.53;;;11.48;100.00
22261;BME280;11299;43.202;27.920;2023-04-01T05:07:00;100184.16;;;10.71;100.00
22261;BME280;11299;43.202;27.920;2023-04-01T05:09:26;100294.69;;;11.45;100.00
22261;BME280;11299;43.202;27.920;2023-04-01T05:11:51;100316.28;;;11.48;100.00
22261;BME280;11299;43.202;27.920;2023-04-01T05:14:17;100290.38;;;11.69;100.00
22261;BME280;11299;43.202;27.920;2023-04-01T05:16:42;100269.88;;;11.70;100.00
22261;BME280;11299;43.202;27.920;2023-04-01T05:19:08;100300.13;;;11.81;100.00
22261;BME280;11299;43.202;27.920;2023-04-01T05:21:33;100293.78;;;11.91;100.00
22261;BME280;11299;43.202;27.920;2023-04-01T05:23:59;100289.06;;;11.91;100.00
22261;BME280;11299;43.202;27.920;2023-04-01T05:26:24;100275.75;;;11.78;100.00
22261;BME280;11299;43.202;27.920;2023-04-01T05:28:50;100236.69;;;11.80;100.00
22261;BME280;11299;43.202;27.920;2023-04-01T05:31:15;100280.53;;;12.03;100.00
22261;BME280;11299;43.202;27.920;2023-04-01T05:33:40;100149.03;;;11.44;100.00
22261;BME280;11299;43.202;27.920;2023-04-01T05:36:14;100224.22;;;11.92;100.00
22261;BME280;11299;43.202;27.920;2023-04-01T05:38:40;100258.94;;;12.20;100.00
22261;BME280;11299;43.202;27.920;2023-04-01T05:41:05;100004.41;;;10.66;100.00
22261;BME280;11299;43.202;27.920;2023-04-01T05:43:31;100231.47;;;12.03;100.00
22261;BME280;11299;43.202;27.920;2023-04-01T05:45:57;100237.59;;;12.25;100.00
22261;BME280;11299;43.202;27.920;2023-04-01T05:48:22;100242.84;;;12.47;100.00
22261;BME280;11299;43.202;27.920;2023-04-01T05:50:48;100227.88;;;12.58;100.00
22261;BME280;11299;43.202;27.920;2023-04-01T05:53:13;100210.94;;;12.60;100.00
22261;BME280;11299;43.202;27.920;2023-04-01T05:55:39;100229.75;;;12.93;100.00
22261;BME280;11299;43.202;27.920;2023-04-01T05:58:05;100186.44;;;12.97;100.00
22261;BME280;11299;43.202;27.920;2023-04-01T06:00:30;100149.25;;;12.98;100.00
22261;BME280;11299;43.202;27.920;2023-04-01T06:02:58;100217.56;;;13.63;100.00
22261;BME280;11299;43.202;27.920;2023-04-01T06:05:27;100193.00;;;13.85;100.00
22261;BME280;11299;43.202;27.920;2023-04-01T06:07:58;100224.09;;;14.26;100.00
22261;BME280;11299;43.202;27.920;2023-04-01T06:13:07;100091.88;;;13.76;100.00
22261;BME280;11299;43.202;27.920;2023-04-01T06:15:58;100206.88;;;14.29;100.00
22261;BME280;11299;43.202;27.920;2023-04-01T06:21:37;100234.66;;;14.34;100.00
22261;BME280;11299;43.202;27.920;2023-04-01T06:27:29;100241.59;;;14.31;100.00
22261;BME280;11299;43.202;27.920;2023-04-01T06:32:41;100222.25;;;14.50;100.00
22261;BME280;11299;43.202;27.920;2023-04-01T06:46:18;100191.31;;;14.28;100.00
22261;BME280;11299;43.202;27.920;2023-04-01T06:54:04;100190.47;;;14.27;100.00
22261;BME280;11299;43.202;27.920;2023-04-01T06:56:32;100151.59;;;14.17;100.00
22261;BME280;11299;43.202;27.920;2023-04-01T06:59:01;100064.97;;;13.71;100.00
22261;BME280;11299;43.202;27.920;2023-04-01T07:01:40;100167.44;;;14.50;100.00
22261;BME280;11299;43.202;27.920;2023-04-01T07:04:18;100214.13;;;14.58;100.00
22261;BME280;11299;43.202;27.920;2023-04-01T07:07:01;100075.59;;;13.98;100.00
22261;BME280;11299;43.202;27.920;2023-04-01T07:09:35;100191.31;;;14.56;100.00
22261;BME280;11299;43.202;27.920;2023-04-01T07:12:12;100199.28;;;14.68;100.00
22261;BME280;11299;43.202;27.920;2023-04-01T07:14:41;100158.00;;;14.51;100.00
22261;BME280;11299;43.202;27.920;2023-04-01T07:22:16;100176.91;;;15.01;100.00
22261;BME280;11299;43.202;27.920;2023-04-01T07:24:47;100178.53;;;15.07;100.00
22261;BME280;11299;43.202;27.920;2023-04-01T07:27:14;100155.09;;;15.08;100.00
22261;BME280;11299;43.202;27.920;2023-04-01T07:29:40;100151.88;;;15.01;100.00
22261;BME280;11299;43.202;27.920;2023-04-01T07:38:04;100089.44;;;14.60;100.00
22261;BME280;11299;43.202;27.920;2023-04-01T07:40:41;100169.03;;;15.08;100.00
22261;BME280;11299;43.202;27.920;2023-04-01T07:43:30;100163.28;;;15.24;100.00
22261;BME280;11299;43.202;27.920;2023-04-01T07:49:26;100150.28;;;15.38;100.00
22261;BME280;11299;43.202;27.920;2023-04-01T07:54:57;100139.97;;;15.38;100.00
22261;BME280;11299;43.202;27.920;2023-04-01T07:57:27;100043.13;;;14.69;100.00
22261;BME280;11299;43.202;27.920;2023-04-01T08:00:10;100112.66;;;14.98;100.00
22261;BME280;11299;43.202;27.920;2023-04-01T08:05:29;100122.91;;;14.22;100.00
22261;BME280;11299;43.202;27.920;2023-04-01T08:17:01;100112.03;;;15.25;100.00
22261;BME280;11299;43.202;27.920;2023-04-01T08:21:56;100083.91;;;15.45;100.00
22261;BME280;11299;43.202;27.920;2023-04-01T08:24:42;100121.47;;;15.66;100.00
22261;BME280;11299;43.202;27.920;2023-04-01T08:27:20;100099.38;;;15.88;100.00
22261;BME280;11299;43.202;27.920;2023-04-01T08:30:04;100126.44;;;16.06;100.00
22261;BME280;11299;43.202;27.920;2023-04-01T08:32:36;100102.38;;;16.10;100.00
22261;BME280;11299;43.202;27.920;2023-04-01T08:35:30;100080.09;;;16.37;100.00
22261;BME280;11299;43.202;27.920;2023-04-01T08:38:01;100092.06;;;16.56;100.00
22261;BME280;11299;43.202;27.920;2023-04-01T08:40:57;100087.94;;;16.54;100.00
22261;BME280;11299;43.202;27.920;2023-04-01T08:46:48;100115.34;;;16.92;100.00
22261;BME280;11299;43.202;27.920;2023-04-01T08:56:57;100073.97;;;16.94;100.00
22261;BME280;11299;43.202;27.920;2023-04-01T08:59:32;100102.09;;;17.12;100.00
22261;BME280;11299;43.202;27.920;2023-04-01T09:22:18;100081.69;;;17.96;100.00
22261;BME280;11299;43.202;27.920;2023-04-01T09:28:16;100034.59;;;17.90;100.00
22261;BME280;11299;43.202;27.920;2023-04-01T09:36:38;99941.09;;;17.38;100.00
22261;BME280;11299;43.202;27.920;2023-04-01T09:39:42;100029.44;;;17.83;100.00
22261;BME280;11299;43.202;27.920;2023-04-01T09:42:15;100015.59;;;17.56;100.00
22261;BME280;11299;43.202;27.920;2023-04-01T09:44:59;99991.91;;;17.40;100.00
22261;BME280;11299;43.202;27.920;2023-04-01T10:27:56;99863.00;;;17.11;100.00
22261;BME280;11299;43.202;27.920;2023-04-01T10:41:44;99843.81;;;17.18;100.00
22261;BME280;11299;43.202;27.920;2023-04-01T10:59:01;99769.06;;;16.48;100.00
22261;BME280;11299;43.202;27.920;2023-04-01T11:02:33;99929.78;;;17.21;100.00
22261;BME280;11299;43.202;27.920;2023-04-01T11:10:57;99909.28;;;17.03;100.00
22261;BME280;11299;43.202;27.920;2023-04-01T11:33:23;99888.44;;;17.09;100.00
22261;BME280;11299;43.202;27.920;2023-04-01T11:41:13;99886.16;;;17.33;100.00
22261;BME280;11299;43.202;27.920;2023-04-01T11:47:13;99814.22;;;16.72;100.00
22261;BME280;11299;43.202;27.920;2023-04-01T11:57:57;99827.97;;;18.61;100.00
22261;BME280;11299;43.202;27.920;2023-04-01T12:06:05;99718.09;;;18.56;100.00
22261;BME280;11299;43.202;27.920;2023-04-01T12:11:29;99737.34;;;18.40;100.00
22261;BME280;11299;43.202;27.920;2023-04-01T12:14:16;99824.00;;;18.79;100.00
22261;BME280;11299;43.202;27.920;2023-04-01T12:17:06;99821.06;;;18.67;100.00
22261;BME280;11299;43.202;27.920;2023-04-01T12:20:38;99825.16;;;18.70;100.00
22261;BME280;11299;43.202;27.920;2023-04-01T12:33:40;99818.16;;;18.16;100.00
22261;BME280;11299;43.202;27.920;2023-04-01T12:36:23;99820.25;;;18.02;100.00
22261;BME280;11299;43.202;27.920;2023-04-01T12:39:20;99827.31;;;18.00;100.00
22261;BME280;11299;43.202;27.920;2023-04-01T12:42:13;99821.97;;;17.81;100.00
22261;BME280;11299;43.202;27.920;2023-04-01T12:57:33;99824.38;;;17.35;100.00
22261;BME280;11299;43.202;27.920;2023-04-01T13:22:41;99807.34;;;16.07;100.00
22261;BME280;11299;43.202;27.920;2023-04-01T13:25:36;99787.75;;;15.85;100.00
22261;BME280;11299;43.202;27.920;2023-04-01T13:28:21;99779.69;;;15.83;100.00
22261;BME280;11299;43.202;27.920;2023-04-01T13:34:08;99844.72;;;15.79;100.00
22261;BME280;11299;43.202;27.920;2023-04-01T13:42:47;99783.72;;;15.91;100.00
22261;BME280;11299;43.202;27.920;2023-04-01T13:45:19;99780.28;;;16.08;100.00
22261;BME280;11299;43.202;27.920;2023-04-01T13:57:00;99766.75;;;16.50;100.00
22261;BME280;11299;43.202;27.920;2023-04-01T14:01:53;99722.50;;;16.44;100.00
22261;BME280;11299;43.202;27.920;2023-04-01T14:15:18;99736.56;;;16.52;100.00
22261;BME280;11299;43.202;27.920;2023-04-01T14:20:27;99795.75;;;16.85;100.00
22261;BME280;11299;43.202;27.920;2023-04-01T14:31:30;99644.13;;;16.10;100.00
22261;BME280;11299;43.202;27.920;2023-04-01T14:37:19;99747.34;;;16.67;100.00
22261;BME280;11299;43.202;27.920;2023-04-01T14:49:22;99740.16;;;16.17;100.00
22261;BME280;11299;43.202;27.920;2023-04-01T14:51:50;99743.53;;;15.92;100.00
22261;BME280;11299;43.202;27.920;2023-04-01T14:54:37;99733.91;;;15.98;100.00
22261;BME280;11299;43.202;27.920;2023-04-01T14:57:29;99727.81;;;15.96;100.00
22261;BME280;11299;43.202;27.920;2023-04-01T15:00:16;99722.25;;;15.96;100.00
22261;BME280;11299;43.202;27.920;2023-04-01T15:03:13;99708.53;;;15.86;100.00
22261;BME280;11299;43.202;27.920;2023-04-01T15:05:51;99624.47;;;15.30;100.00
22261;BME280;11299;43.202;27.920;2023-04-01T15:08:29;99739.38;;;16.03;100.00
22261;BME280;11299;43.202;27.920;2023-04-01T15:25:16;99592.63;;;17.64;100.00
22261;BME280;11299;43.202;27.920;2023-04-01T15:28:24;99688.28;;;18.51;100.00
22261;BME280;11299;43.202;27.920;2023-04-01T15:31:13;99660.44;;;18.38;100.00
22261;BME280;11299;43.202;27.920;2023-04-01T15:33:47;99715.66;;;18.54;100.00
22261;BME280;11299;43.202;27.920;2023-04-01T15:38:58;99597.63;;;17.11;100.00
22261;BME280;11299;43.202;27.920;2023-04-01T15:49:53;99669.97;;;16.59;100.00
22261;BME280;11299;43.202;27.920;2023-04-01T15:52:47;99661.06;;;16.13;100.00
22261;BME280;11299;43.202;27.920;2023-04-01T16:05:10;99686.06;;;15.15;100.00
22261;BME280;11299;43.202;27.920;2023-04-01T16:15:37;99724.63;;;15.07;100.00
22261;BME280;11299;43.202;27.920;2023-04-01T16:20:53;99739.41;;;15.08;100.00
22261;BME280;11299;43.202;27.920;2023-04-01T16:23:43;99700.47;;;14.89;100.00
22261;BME280;11299;43.202;27.920;2023-04-01T16:26:22;99720.09;;;14.98;100.00
22261;BME280;11299;43.202;27.920;2023-04-01T16:37:07;99681.16;;;14.66;100.00
22261;BME280;11299;43.202;27.920;2023-04-01T16:45:23;99645.44;;;14.41;100.00
22261;BME280;11299;43.202;27.920;2023-04-01T16:47:54;99714.13;;;14.72;100.00
22261;BME280;11299;43.202;27.920;2023-04-01T16:50:23;99740.69;;;14.83;100.00
22261;BME280;11299;43.202;27.920;2023-04-01T16:53:02;99727.28;;;14.85;100.00
22261;BME280;11299;43.202;27.920;2023-04-01T16:58:33;99601.84;;;14.04;100.00
22261;BME280;11299;43.202;27.920;2023-04-01T17:01:07;99733.19;;;14.65;100.00
22261;BME280;11299;43.202;27.920;2023-04-01T17:03:58;99706.31;;;14.74;100.00
22261;BME280;11299;43.202;27.920;2023-04-01T17:07:28;99719.88;;;14.94;100.00
22261;BME280;11299;43.202;27.920;2023-04-01T17:35:06;99745.63;;;14.54;100.00
22261;BME280;11299;43.202;27.920;2023-04-01T17:37:39;99706.78;;;14.49;100.00
22261;BME280;11299;43.202;27.920;2023-04-01T17:50:58;99673.03;;;14.37;100.00
22261;BME280;11299;43.202;27.920;2023-04-01T17:56:41;99735.13;;;14.51;100.00
22261;BME280;11299;43.202;27.920;2023-04-01T18:10:39;99591.25;;;12.89;100.00
22261;BME280;11299;43.202;27.920;2023-04-01T18:13:29;99750.63;;;13.36;100.00
22261;BME280;11299;43.202;27.920;2023-04-01T18:16:02;99721.78;;;13.32;100.00
22261;BME280;11299;43.202;27.920;2023-04-01T18:18:46;99726.28;;;13.28;100.00
22261;BME280;11299;43.202;27.920;2023-04-01T18:23:50;99588.31;;;12.57;100.00
22261;BME280;11299;43.202;27.920;2023-04-01T18:26:32;99706.91;;;13.23;100.00
22261;BME280;11299;43.202;27.920;2023-04-01T18:30:21;99705.22;;;13.27;100.00
22261;BME280;11299;43.202;27.920;2023-04-01T18:32:31;99701.22;;;13.33;100.00
22261;BME280;11299;43.202;27.920;2023-04-01T18:38:16;99590.59;;;12.50;100.00
22261;BME280;11299;43.202;27.920;2023-04-01T18:43:59;99596.22;;;12.45;100.00
22261;BME280;11299;43.202;27.920;2023-04-01T18:49:21;99740.69;;;13.30;100.00
22261;BME280;11299;43.202;27.920;2023-04-01T18:51:55;99653.69;;;12.63;100.00
22261;BME280;11299;43.202;27.920;2023-04-01T18:55:33;99771.63;;;13.18;100.00
22261;BME280;11299;43.202;27.920;2023-04-01T18:57:27;99745.72;;;12.99;100.00
22261;BME280;11299;43.202;27.920;2023-04-01T19:00:25;99759.28;;;13.00;100.00
22261;BME280;11299;43.202;27.920;2023-04-01T19:03:03;99777.25;;;13.13;100.00
22261;BME280;11299;43.202;27.920;2023-04-01T19:05:38;99641.09;;;12.18;100.00
22261;BME280;11299;43.202;27.920;2023-04-01T19:21:28;99764.59;;;12.97;100.00
22261;BME280;11299;43.202;27.920;2023-04-01T19:32:36;99813.22;;;12.89;100.00
22261;BME280;11299;43.202;27.920;2023-04-01T19:38:04;99792.97;;;12.89;100.00
22261;BME280;11299;43.202;27.920;2023-04-01T20:10:58;99777.13;;;12.61;100.00
22261;BME280;11299;43.202;27.920;2023-04-01T20:16:40;99751.97;;;12.52;100.00
22261;BME280;11299;43.202;27.920;2023-04-01T20:19:10;99691.19;;;12.27;100.00
22261;BME280;11299;43.202;27.920;2023-04-01T20:26:44;99680.28;;;12.02;100.00
22261;BME280;11299;43.202;27.920;2023-04-01T20:37:57;99802.22;;;12.79;100.00
22261;BME280;11299;43.202;27.920;2023-04-01T20:45:38;99799.63;;;12.59;100.00
22261;BME280;11299;43.202;27.920;2023-04-01T20:53:35;99797.34;;;12.66;100.00
22261;BME280;11299;43.202;27.920;2023-04-01T21:01:19;99807.75;;;12.79;100.00
22261;BME280;11299;43.202;27.920;2023-04-01T21:04:05;99812.75;;;12.82;100.00
22261;BME280;11299;43.202;27.920;2023-04-01T21:06:53;99852.97;;;12.85;100.00
22261;BME280;11299;43.202;27.920;2023-04-01T21:12:04;99804.59;;;12.62;100.00
22261;BME280;11299;43.202;27.920;2023-04-01T21:22:43;99748.16;;;11.46;100.00
22261;BME280;11299;43.202;27.920;2023-04-01T21:25:20;99897.19;;;12.22;100.00
22261;BME280;11299;43.202;27.920;2023-04-01T21:46:57;99797.22;;;11.35;100.00
22261;BME280;11299;43.202;27.920;2023-04-01T21:49:31;99877.09;;;11.87;100.00
22261;BME280;11299;43.202;27.920;2023-04-01T22:00:24;99900.34;;;11.96;100.00
22261;BME280;11299;43.202;27.920;2023-04-01T22:05:55;99858.88;;;11.56;100.00
22261;BME280;11299;43.202;27.920;2023-04-01T22:17:11;99805.81;;;11.18;100.00
22261;BME280;11299;43.202;27.920;2023-04-01T22:20:05;99963.25;;;11.95;100.00
22261;BME280;11299;43.202;27.920;2023-04-01T22:23:06;99981.81;;;11.90;100.00
22261;BME280;11299;43.202;27.920;2023-04-01T22:28:05;99967.41;;;11.83;100.00
22261;BME280;11299;43.202;27.920;2023-04-01T22:31:01;99965.75;;;11.82;100.00
22261;BME280;11299;43.202;27.920;2023-04-01T22:39:04;99954.44;;;11.73;100.00
22261;BME280;11299;43.202;27.920;2023-04-01T22:41:57;99944.72;;;11.61;100.00
22261;BME280;11299;43.202;27.920;2023-04-01T22:50:23;99938.38;;;11.40;100.00
22261;BME280;11299;43.202;27.920;2023-04-01T22:52:59;99898.25;;;11.02;100.00
22261;BME280;11299;43.202;27.920;2023-04-01T22:55:30;99960.25;;;11.47;100.00
22261;BME280;11299;43.202;27.920;2023-04-01T22:58:01;99969.94;;;11.69;100.00
22261;BME280;11299;43.202;27.920;2023-04-01T23:00:47;99923.69;;;11.39;100.00
22261;BME280;11299;43.202;27.920;2023-04-01T23:03:29;99872.25;;;11.08;100.00
22261;BME280;11299;43.202;27.920;2023-04-01T23:06:01;99951.34;;;11.55;100.00
22261;BME280;11299;43.202;27.920;2023-04-01T23:09:00;99992.91;;;11.75;100.00
22261;BME280;11299;43.202;27.920;2023-04-01T23:16:48;99929.50;;;11.58;100.00
22261;BME280;11299;43.202;27.920;2023-04-01T23:19:32;99891.59;;;11.38;100.00
22261;BME280;11299;43.202;27.920;2023-04-01T23:30:00;99930.88;;;11.76;100.00
22261;BME280;11299;43.202;27.920;2023-04-01T23:32:26;99966.81;;;12.01;100.00
22261;BME280;11299;43.202;27.920;2023-04-01T23:34:54;99869.44;;;11.38;100.00